NOAA Weather Radio

Lightning Safety

Turn Around Don't Drown
Storm Ready
SkyWarn
WACO REGIONAL AIRPORT, TX, United States (KACT) 31-36N 97-13W 151M
Oct 23, 2014 - 05:51 PM EDT / 2014.10.23 2151 UTC
Wind: from the ESE (110 degrees) at 7 MPH (6 KT):0
Visibility: 10 mile(s):0
Sky conditions: partly cloudy
Temperature: 80.1 F (26.7 C)
Dew Point: 55.9 F (13.3 C)
Relative Humidity: 43%
Pressure (altimeter): 30.06 in. Hg (1017 hPa)
ob: KACT 232151Z 11006KT 10SM SCT090 27/13 A3006 RMK AO2 SLP173 T02670133
cycle: 22